createdAt,value
2023-02-14T00:01:09.799Z,98299.97
2023-02-14T00:03:37.249Z,98305.09
2023-02-14T00:06:13.316Z,98301.09
2023-02-14T00:08:43.433Z,98300.44
2023-02-14T00:11:12.369Z,98294.00
2023-02-14T00:13:39.372Z,98307.75
2023-02-14T00:16:06.473Z,98309.19
2023-02-14T00:18:52.200Z,98302.75
2023-02-14T00:21:19.207Z,98312.38
2023-02-14T00:23:46.188Z,98300.63
2023-02-14T00:26:15.414Z,98304.09
2023-02-14T00:28:43.787Z,98309.03
2023-02-14T00:31:11.130Z,98305.25
2023-02-14T00:33:38.307Z,98311.84
2023-02-14T00:36:07.349Z,98313.31
2023-02-14T00:38:35.011Z,98304.75
2023-02-14T00:41:02.869Z,98316.97
2023-02-14T00:43:29.917Z,98313.00
2023-02-14T00:45:57.861Z,98318.59
2023-02-14T00:48:25.257Z,98311.97
2023-02-14T00:50:52.374Z,98317.09
2023-02-14T00:53:19.303Z,98318.06
2023-02-14T00:55:47.697Z,98324.84
2023-02-14T00:58:15.324Z,98333.75
2023-02-14T01:00:42.432Z,98326.81
2023-02-14T01:03:09.515Z,98316.09
2023-02-14T01:05:36.508Z,98346.00
2023-02-14T01:08:04.682Z,98334.63
2023-02-14T01:10:31.871Z,98316.97
2023-02-14T01:12:59.230Z,98323.22
2023-02-14T01:15:27.812Z,98334.47
2023-02-14T01:18:13.412Z,98323.56
2023-02-14T01:20:41.324Z,98326.34
2023-02-14T01:23:08.375Z,98330.81
2023-02-14T01:25:38.076Z,98326.81
2023-02-14T01:28:06.112Z,98334.94
2023-02-14T01:30:33.250Z,98339.88
2023-02-14T01:33:00.297Z,98345.00
2023-02-14T01:35:27.347Z,98352.59
2023-02-14T01:37:54.638Z,98358.09
2023-02-14T01:40:21.813Z,98366.19
2023-02-14T01:42:48.758Z,98357.25
2023-02-14T01:45:26.666Z,98359.25
2023-02-14T01:47:56.680Z,98358.44
2023-02-14T01:50:36.767Z,98358.09
2023-02-14T01:53:09.357Z,98357.94
2023-02-14T01:55:42.503Z,98362.91
2023-02-14T01:58:11.683Z,98363.53
2023-02-14T02:00:59.454Z,98350.63
2023-02-14T02:03:38.751Z,98363.56
2023-02-14T02:06:16.820Z,98360.44
2023-02-14T02:09:08.555Z,98375.16
2023-02-14T02:11:35.856Z,98369.25
2023-02-14T02:14:03.965Z,98368.56
2023-02-14T02:17:21.019Z,98371.88
2023-02-14T02:20:03.662Z,98371.72
2023-02-14T02:22:53.358Z,98367.59
2023-02-14T02:25:38.970Z,98382.31
2023-02-14T02:28:54.023Z,98386.44
2023-02-14T02:31:39.660Z,98384.44
2023-02-14T02:34:15.499Z,98382.47
2023-02-14T02:36:56.961Z,98378.16
2023-02-14T02:39:46.853Z,98376.16
2023-02-14T02:42:55.411Z,98390.72
2023-02-14T02:45:57.312Z,98379.16
2023-02-14T02:48:31.253Z,98381.44
2023-02-14T02:51:18.686Z,98381.13
2023-02-14T02:53:59.100Z,98385.94
2023-02-14T02:56:49.793Z,98375.84
2023-02-14T02:59:30.109Z,98380.44
2023-02-14T03:02:21.195Z,98376.31
2023-02-14T03:04:56.060Z,98384.78
2023-02-14T03:07:39.837Z,98374.19
2023-02-14T03:10:27.368Z,98379.47
2023-02-14T03:13:00.940Z,98382.75
2023-02-14T03:15:28.143Z,98373.84
2023-02-14T03:18:14.041Z,98375.84
2023-02-14T03:21:00.909Z,98383.91
2023-02-14T03:23:32.056Z,98386.06
2023-02-14T03:26:27.534Z,98378.81
2023-02-14T03:29:12.959Z,98379.47
2023-02-14T03:32:08.270Z,98376.50
2023-02-14T03:34:55.632Z,98382.75
2023-02-14T03:37:38.969Z,98384.09
2023-02-14T03:40:25.323Z,98379.44
2023-02-14T03:42:58.884Z,98383.09
2023-02-14T03:45:33.320Z,98389.38
2023-02-14T03:48:06.584Z,98390.22
2023-02-14T03:50:36.481Z,98411.38
2023-02-14T03:53:07.639Z,98406.06
2023-02-14T03:55:47.734Z,98407.88
2023-02-14T03:58:43.484Z,98411.66
2023-02-14T04:01:32.793Z,98413.16
2023-02-14T04:04:01.797Z,98426.38
2023-02-14T04:06:28.942Z,98430.84
2023-02-14T04:08:55.987Z,98434.03
2023-02-14T04:11:24.584Z,98415.34
2023-02-14T04:13:51.757Z,98408.22
2023-02-14T04:16:18.832Z,98409.41
2023-02-14T04:19:04.697Z,98416.00
2023-02-14T04:21:31.699Z,98417.16
2023-02-14T04:23:58.648Z,98425.41
2023-02-14T04:26:25.726Z,98430.19
2023-02-14T04:28:52.753Z,98424.06
2023-02-14T04:31:19.950Z,98427.88
2023-02-14T04:33:48.207Z,98435.94
2023-02-14T04:36:15.206Z,98437.91
2023-02-14T04:38:42.174Z,98436.25
2023-02-14T04:41:09.235Z,98446.19
2023-02-14T04:43:36.211Z,98447.50
2023-02-14T04:46:03.282Z,98449.34
2023-02-14T04:48:30.256Z,98454.31
2023-02-14T04:50:57.389Z,98453.50
2023-02-14T04:53:24.680Z,98456.13
2023-02-14T04:55:51.768Z,98456.81
2023-02-14T04:58:18.815Z,98466.72
2023-02-14T05:00:46.047Z,98467.22
2023-02-14T05:03:13.159Z,98472.50
2023-02-14T05:05:40.121Z,98468.03
2023-02-14T05:08:07.186Z,98478.28
2023-02-14T05:10:34.265Z,98478.63
2023-02-14T05:13:01.601Z,98482.94
2023-02-14T05:15:28.539Z,98483.09
2023-02-14T05:17:55.510Z,98488.72
2023-02-14T05:20:22.475Z,98486.25
2023-02-14T05:22:49.421Z,98507.06
2023-02-14T05:25:16.450Z,98498.94
2023-02-14T05:27:43.504Z,98505.41
2023-02-14T05:30:11.822Z,98514.69
2023-02-14T05:32:39.019Z,98510.38
2023-02-14T05:35:06.521Z,98512.50
2023-02-14T05:37:33.497Z,98514.50
2023-02-14T05:40:00.479Z,98513.34
2023-02-14T05:42:27.609Z,98512.34
2023-02-14T05:44:54.622Z,98517.81
2023-02-14T05:47:21.728Z,98512.66
2023-02-14T05:49:48.709Z,98511.69
2023-02-14T05:52:15.738Z,98514.00
2023-02-14T05:54:42.764Z,98502.13
2023-02-14T05:57:09.832Z,98508.22
2023-02-14T05:59:36.960Z,98510.22
2023-02-14T06:02:04.019Z,98512.00
2023-02-14T06:04:31.016Z,98508.69
2023-02-14T06:06:58.113Z,98515.16
2023-02-14T06:09:25.224Z,98514.34
2023-02-14T06:11:54.951Z,98515.66
2023-02-14T06:14:22.255Z,98510.69
2023-02-14T06:16:49.377Z,98518.97
2023-02-14T06:19:16.531Z,98522.56
2023-02-14T06:21:43.538Z,98521.91
2023-02-14T06:24:10.637Z,98529.03
2023-02-14T06:26:37.880Z,98531.50
2023-02-14T06:29:04.928Z,98523.69
2023-02-14T06:31:32.359Z,98527.63
2023-02-14T06:33:59.632Z,98529.78
2023-02-14T06:36:27.196Z,98539.53
2023-02-14T06:38:54.304Z,98534.25
2023-02-14T06:41:21.573Z,98539.25
2023-02-14T06:43:51.798Z,98539.41
2023-02-14T06:46:19.480Z,98542.91
2023-02-14T06:48:46.607Z,98543.88
2023-02-14T06:51:13.998Z,98555.97
2023-02-14T06:53:41.148Z,98548.34
2023-02-14T06:56:08.317Z,98551.00
2023-02-14T06:58:35.422Z,98545.34
2023-02-14T07:01:02.810Z,98558.94
2023-02-14T07:03:30.004Z,98557.94
2023-02-14T07:05:58.553Z,98566.88
2023-02-14T07:08:26.809Z,98568.19
2023-02-14T07:10:58.504Z,98566.22
2023-02-14T07:13:26.440Z,98565.69
2023-02-14T07:15:53.506Z,98575.78
2023-02-14T07:18:20.882Z,98570.47
2023-02-14T07:20:47.987Z,98575.25
2023-02-14T07:23:15.004Z,98577.75
2023-02-14T07:25:42.158Z,98577.56
2023-02-14T07:28:09.194Z,98580.06
2023-02-14T07:30:36.454Z,98587.97
2023-02-14T07:33:03.502Z,98585.63
2023-02-14T07:35:30.569Z,98581.66
2023-02-14T07:37:57.761Z,98584.13
2023-02-14T07:40:25.380Z,98586.59
2023-02-14T07:42:54.517Z,98595.91
2023-02-14T07:45:22.436Z,98598.50
2023-02-14T07:47:54.360Z,98605.81
2023-02-14T07:50:23.410Z,98600.66
2023-02-14T07:52:50.563Z,98612.69
2023-02-14T07:55:19.398Z,98618.00
2023-02-14T07:57:49.635Z,98605.16
2023-02-14T08:00:18.179Z,98610.91
2023-02-14T08:02:45.385Z,98607.56
2023-02-14T08:05:20.453Z,98609.03
2023-02-14T08:07:47.523Z,98616.16
2023-02-14T08:10:15.344Z,98617.84
2023-02-14T08:13:00.739Z,98618.44
2023-02-14T08:15:48.923Z,98613.78
2023-02-14T08:18:18.224Z,98616.00
2023-02-14T08:20:46.711Z,98625.22
2023-02-14T08:23:13.804Z,98614.50
2023-02-14T08:25:41.130Z,98640.78
2023-02-14T08:28:08.373Z,98624.16
2023-02-14T08:30:40.559Z,98635.97
2023-02-14T08:33:07.586Z,98641.38
2023-02-14T08:35:35.777Z,98636.56
2023-02-14T08:38:02.861Z,98653.72
2023-02-14T08:40:30.451Z,98650.81
2023-02-14T08:42:57.577Z,98651.81
2023-02-14T08:45:24.686Z,98657.16
2023-02-14T08:47:51.759Z,98663.13
2023-02-14T08:50:19.473Z,98666.50
2023-02-14T08:52:46.577Z,98671.31
2023-02-14T08:55:14.205Z,98663.69
2023-02-14T08:57:41.345Z,98649.28
2023-02-14T09:00:10.346Z,98674.13
2023-02-14T09:02:37.496Z,98675.78
2023-02-14T09:05:06.252Z,98680.91
2023-02-14T09:07:33.327Z,98679.91
2023-02-14T09:10:00.398Z,98692.50
2023-02-14T09:12:27.584Z,98695.66
2023-02-14T09:14:54.668Z,98697.63
2023-02-14T09:17:21.672Z,98695.47
2023-02-14T09:19:48.917Z,98700.25
2023-02-14T09:22:15.964Z,98708.66
2023-02-14T09:24:42.984Z,98715.53
2023-02-14T09:27:10.777Z,98716.00
2023-02-14T09:29:37.869Z,98721.59
2023-02-14T09:32:05.363Z,98724.59
2023-02-14T09:34:34.776Z,98729.91
2023-02-14T09:37:02.083Z,98724.44
2023-02-14T09:39:29.081Z,98716.38
2023-02-14T09:42:17.651Z,98730.31
2023-02-14T09:44:51.584Z,98735.13
2023-02-14T09:47:51.042Z,98727.81
2023-02-14T09:50:20.338Z,98738.25
2023-02-14T09:52:51.287Z,98746.81
2023-02-14T09:55:18.829Z,98743.00
2023-02-14T09:58:13.520Z,98753.41
2023-02-14T10:00:48.995Z,98757.94
2023-02-14T10:03:37.388Z,98765.53
2023-02-14T10:06:24.047Z,98770.81
2023-02-14T10:09:11.972Z,98762.13
2023-02-14T10:11:40.829Z,98767.63
2023-02-14T10:14:20.124Z,98772.94
2023-02-14T10:17:07.331Z,98783.25
2023-02-14T10:19:43.557Z,98778.41
2023-02-14T10:22:19.142Z,98785.97
2023-02-14T10:24:59.120Z,98786.47
2023-02-14T10:27:35.789Z,98784.03
2023-02-14T10:30:13.725Z,98807.09
2023-02-14T10:32:46.782Z,98798.88
2023-02-14T10:35:24.992Z,98803.22
2023-02-14T10:38:11.134Z,98814.03
2023-02-14T10:41:15.409Z,98812.53
2023-02-14T10:44:03.677Z,98813.84
2023-02-14T10:46:43.353Z,98822.78
2023-02-14T10:49:16.001Z,98818.31
2023-02-14T10:52:19.058Z,98819.75
2023-02-14T10:54:54.691Z,98830.38
2023-02-14T10:57:24.614Z,98829.47
2023-02-14T10:59:57.122Z,98835.19
2023-02-14T11:02:31.217Z,98832.88
2023-02-14T11:05:00.194Z,98840.88
2023-02-14T11:07:27.494Z,98838.06
2023-02-14T11:09:54.525Z,98842.41
2023-02-14T11:12:41.273Z,98846.63
2023-02-14T11:15:21.863Z,98848.94
2023-02-14T11:17:49.356Z,98845.31
2023-02-14T11:20:20.080Z,98853.47
2023-02-14T11:22:47.166Z,98866.22
2023-02-14T11:25:20.379Z,98872.72
2023-02-14T11:27:50.370Z,98873.53
2023-02-14T11:30:26.845Z,98880.63
2023-02-14T11:32:56.482Z,98877.34
2023-02-14T11:35:30.441Z,98888.09
2023-02-14T11:37:58.430Z,98889.09
2023-02-14T11:40:39.802Z,98877.16
2023-02-14T11:43:14.817Z,98895.22
2023-02-14T11:45:44.440Z,98888.41
2023-02-14T11:48:36.524Z,98888.41
2023-02-14T11:51:16.534Z,98888.44
2023-02-14T11:53:48.976Z,98895.41
2023-02-14T11:56:18.538Z,98889.44
2023-02-14T11:58:55.231Z,98899.22
2023-02-14T12:01:30.009Z,98905.84
2023-02-14T12:04:03.815Z,98909.34
2023-02-14T12:06:34.265Z,98906.03
2023-02-14T12:09:23.694Z,98917.44
2023-02-14T12:12:23.406Z,98920.13
2023-02-14T12:14:50.656Z,98918.75
2023-02-14T12:17:31.492Z,98932.81
2023-02-14T12:20:01.642Z,98927.47
2023-02-14T12:22:36.962Z,98932.38
2023-02-14T12:25:16.776Z,98929.56
2023-02-14T12:28:06.208Z,98942.09
2023-02-14T12:30:35.324Z,98940.97
2023-02-14T12:33:02.649Z,98946.94
2023-02-14T12:36:00.776Z,98959.25
2023-02-14T12:38:45.207Z,98962.25
2023-02-14T12:41:21.229Z,98971.66
2023-02-14T12:43:50.815Z,98982.28
2023-02-14T12:46:39.749Z,98981.72
2023-02-14T12:49:20.586Z,98975.38
2023-02-14T12:52:05.167Z,98998.34
2023-02-14T12:54:49.956Z,98995.50
2023-02-14T12:57:39.123Z,99002.44
2023-02-14T13:00:25.088Z,99005.41
2023-02-14T13:03:33.828Z,99010.72
2023-02-14T13:06:41.441Z,99021.53
2023-02-14T13:09:29.935Z,99029.06
2023-02-14T13:12:12.053Z,99028.09
2023-02-14T13:14:45.817Z,99032.19
2023-02-14T13:17:20.488Z,99028.78
2023-02-14T13:19:47.585Z,99044.84
2023-02-14T13:22:19.458Z,99032.56
2023-02-14T13:24:50.378Z,99045.16
2023-02-14T13:27:24.996Z,99052.59
2023-02-14T13:30:05.188Z,99056.78
2023-02-14T13:32:39.727Z,99051.16
2023-02-14T13:35:08.701Z,99062.28
2023-02-14T13:37:37.254Z,99073.69
2023-02-14T13:40:08.989Z,99073.78
2023-02-14T13:42:48.536Z,99087.19
2023-02-14T13:45:39.679Z,99091.25
2023-02-14T13:48:15.779Z,99095.03
2023-02-14T13:50:55.959Z,99097.53
2023-02-14T13:53:34.384Z,99102.06
2023-02-14T13:56:26.995Z,99098.19
2023-02-14T13:59:00.497Z,99109.91
2023-02-14T14:01:48.885Z,99110.25
2023-02-14T14:04:28.620Z,99118.84
2023-02-14T14:07:05.149Z,99110.91
2023-02-14T14:09:45.582Z,99130.84
2023-02-14T14:12:27.816Z,99140.84
2023-02-14T14:15:08.193Z,99133.41
2023-02-14T14:17:40.872Z,99138.88
2023-02-14T14:20:18.769Z,99141.34
2023-02-14T14:23:00.189Z,99143.94
2023-02-14T14:25:34.260Z,99152.47
2023-02-14T14:28:01.699Z,99154.28
2023-02-14T14:30:33.612Z,99155.72
2023-02-14T14:33:26.961Z,99166.44
2023-02-14T14:35:57.609Z,99166.72
2023-02-14T14:38:27.204Z,99174.44
2023-02-14T14:40:54.848Z,99183.47
2023-02-14T14:43:27.480Z,99185.41
2023-02-14T14:45:56.321Z,99184.94
2023-02-14T14:48:33.505Z,99186.41
2023-02-14T14:51:01.091Z,99185.69
2023-02-14T14:53:34.823Z,99194.63
2023-02-14T14:56:02.333Z,99192.28
2023-02-14T14:58:40.051Z,99196.47
2023-02-14T15:01:11.159Z,99205.38
2023-02-14T15:03:38.320Z,99199.28
2023-02-14T15:06:21.997Z,99201.09
2023-02-14T15:08:51.606Z,99209.69
2023-02-14T15:11:46.864Z,99225.53
2023-02-14T15:14:20.486Z,99214.59
2023-02-14T15:16:54.920Z,99233.53
2023-02-14T15:19:34.532Z,99229.75
2023-02-14T15:22:04.510Z,99233.41
2023-02-14T15:24:35.319Z,99230.47
2023-02-14T15:27:03.227Z,99237.53
2023-02-14T15:29:32.968Z,99240.63
2023-02-14T15:32:03.374Z,99246.50
2023-02-14T15:34:36.428Z,99253.88
2023-02-14T15:37:06.786Z,99247.47
2023-02-14T15:39:38.250Z,99257.34
2023-02-14T15:42:06.628Z,99266.94
2023-02-14T15:44:33.778Z,99270.56
2023-02-14T15:47:05.722Z,99271.41
2023-02-14T15:49:36.632Z,99268.50
2023-02-14T15:52:07.030Z,99302.19
2023-02-14T15:54:45.240Z,99290.81
2023-02-14T15:57:29.770Z,99295.81
2023-02-14T15:59:56.999Z,99298.31
2023-02-14T16:02:38.000Z,99307.50
2023-02-14T16:05:27.724Z,99315.16
2023-02-14T16:08:03.662Z,99313.06
2023-02-14T16:10:36.574Z,99307.63
2023-02-14T16:13:16.697Z,99320.16
2023-02-14T16:16:02.148Z,99319.72
2023-02-14T16:18:45.431Z,99324.75
2023-02-14T16:21:31.433Z,99332.66
2023-02-14T16:24:07.630Z,99331.94
2023-02-14T16:26:38.045Z,99317.78
2023-02-14T16:29:06.539Z,99329.47
2023-02-14T16:31:34.284Z,99334.19
2023-02-14T16:34:01.782Z,99337.66
2023-02-14T16:36:34.069Z,99340.59
2023-02-14T16:39:05.152Z,99335.72
2023-02-14T16:41:34.846Z,99343.94
2023-02-14T16:44:02.086Z,99344.22
2023-02-14T16:46:31.422Z,99350.88
2023-02-14T16:48:58.865Z,99357.53
2023-02-14T16:51:32.721Z,99359.34
2023-02-14T16:54:04.321Z,99353.13
2023-02-14T16:56:48.640Z,99354.78
2023-02-14T16:59:15.650Z,99361.03
2023-02-14T17:01:42.640Z,99354.34
2023-02-14T17:04:10.240Z,99361.44
2023-02-14T17:06:41.924Z,99367.72
2023-02-14T17:09:11.924Z,99382.31
2023-02-14T17:11:44.641Z,99386.19
2023-02-14T17:14:14.441Z,99385.09
2023-02-14T17:16:42.454Z,99383.56
2023-02-14T17:19:10.380Z,99381.19
2023-02-14T17:21:38.646Z,99390.34
2023-02-14T17:24:05.918Z,99392.44
2023-02-14T17:26:33.998Z,99400.50
2023-02-14T17:29:01.092Z,99396.22
2023-02-14T17:31:28.796Z,99403.72
2023-02-14T17:33:56.260Z,99402.06
2023-02-14T17:36:24.290Z,99411.91
2023-02-14T17:38:53.766Z,99407.34
2023-02-14T17:41:23.884Z,99406.34
2023-02-14T17:43:55.431Z,99411.63
2023-02-14T17:46:25.455Z,99417.91
2023-02-14T17:48:52.491Z,99426.22
2023-02-14T17:51:22.446Z,99427.38
2023-02-14T17:53:50.377Z,99412.34
2023-02-14T17:56:20.502Z,99419.28
2023-02-14T17:58:49.402Z,99410.81
2023-02-14T18:01:19.160Z,99420.94
2023-02-14T18:03:46.640Z,99421.94
2023-02-14T18:06:14.521Z,99414.72
2023-02-14T18:08:46.681Z,99419.84
2023-02-14T18:11:14.213Z,99420.13
2023-02-14T18:13:41.460Z,99425.00
2023-02-14T18:16:11.495Z,99431.25
2023-02-14T18:18:39.383Z,99431.66
2023-02-14T18:21:10.790Z,99439.59
2023-02-14T18:23:38.180Z,99435.84
2023-02-14T18:26:08.003Z,99434.31
2023-02-14T18:28:36.284Z,99444.63
2023-02-14T18:31:10.064Z,99445.72
2023-02-14T18:33:38.114Z,99439.03
2023-02-14T18:36:14.667Z,99451.28
2023-02-14T18:38:43.630Z,99449.91
2023-02-14T18:41:16.415Z,99459.91
2023-02-14T18:43:44.805Z,99449.88
2023-02-14T18:46:15.173Z,99452.66
2023-02-14T18:48:45.569Z,99449.19
2023-02-14T18:51:19.470Z,99450.56
2023-02-14T18:53:47.604Z,99460.44
2023-02-14T18:56:17.774Z,99460.72
2023-02-14T18:58:48.272Z,99476.84
2023-02-14T19:01:17.707Z,99476.00
2023-02-14T19:03:49.917Z,99492.94
2023-02-14T19:06:18.057Z,99486.53
2023-02-14T19:08:45.916Z,99490.03
2023-02-14T19:11:19.521Z,99488.03
2023-02-14T19:13:54.702Z,99487.47
2023-02-14T19:16:24.410Z,99495.09
2023-02-14T19:18:54.993Z,99510.38
2023-02-14T19:21:25.493Z,99506.38
2023-02-14T19:23:55.017Z,99513.69
2023-02-14T19:26:24.791Z,99514.81
2023-02-14T19:28:56.952Z,99524.66
2023-02-14T19:31:25.196Z,99529.50
2023-02-14T19:33:52.656Z,99530.31
2023-02-14T19:36:21.702Z,99543.09
2023-02-14T19:38:52.617Z,99537.66
2023-02-14T19:41:24.897Z,99543.94
2023-02-14T19:43:53.292Z,99552.31
2023-02-14T19:46:21.703Z,99557.44
2023-02-14T19:48:48.973Z,99555.72
2023-02-14T19:51:30.627Z,99557.72
2023-02-14T19:53:59.904Z,99558.88
2023-02-14T19:56:29.795Z,99567.63
2023-02-14T19:58:57.017Z,99580.03
2023-02-14T20:01:30.797Z,99583.97
2023-02-14T20:03:58.122Z,99571.25
2023-02-14T20:06:26.386Z,99575.28
2023-02-14T20:08:53.894Z,99574.06
2023-02-14T20:11:35.634Z,99572.91
2023-02-14T20:14:03.702Z,99575.19
2023-02-14T20:16:33.334Z,99578.91
2023-02-14T20:19:08.169Z,99575.94
2023-02-14T20:21:35.558Z,99591.41
2023-02-14T20:24:04.001Z,99587.94
2023-02-14T20:26:33.096Z,99591.31
2023-02-14T20:29:03.988Z,99601.97
2023-02-14T20:31:32.566Z,99598.38
2023-02-14T20:34:00.673Z,99601.06
2023-02-14T20:36:28.384Z,99602.47
2023-02-14T20:38:56.332Z,99605.50
2023-02-14T20:41:24.263Z,99608.88
2023-02-14T20:43:51.218Z,99606.09
2023-02-14T20:46:18.423Z,99608.16
2023-02-14T20:48:45.625Z,99612.38
2023-02-14T20:51:17.761Z,99618.28
2023-02-14T20:53:46.220Z,99620.44
2023-02-14T20:56:14.498Z,99613.88
2023-02-14T20:58:42.431Z,99622.84
2023-02-14T21:01:13.442Z,99625.00
2023-02-14T21:03:41.694Z,99628.44
2023-02-14T21:06:11.732Z,99633.22
2023-02-14T21:08:40.045Z,99638.25
2023-02-14T21:11:08.010Z,99635.41
2023-02-14T21:13:35.484Z,99645.59
2023-02-14T21:16:11.561Z,99645.47
2023-02-14T21:18:39.345Z,99642.84
2023-02-14T21:21:14.962Z,99657.00
2023-02-14T21:23:42.157Z,99659.16
2023-02-14T21:26:10.174Z,99644.41
2023-02-14T21:28:37.260Z,99660.25
2023-02-14T21:31:10.093Z,99669.38
2023-02-14T21:33:37.505Z,99660.72
2023-02-14T21:36:08.003Z,99666.34
2023-02-14T21:38:35.766Z,99671.88
2023-02-14T21:41:05.810Z,99673.06
2023-02-14T21:43:38.016Z,99681.56
2023-02-14T21:46:11.382Z,99679.91
2023-02-14T21:48:57.095Z,99672.69
2023-02-14T21:51:24.556Z,99682.06
2023-02-14T21:53:51.798Z,99681.56
2023-02-14T21:56:20.485Z,99682.41
2023-02-14T21:58:49.525Z,99686.75
2023-02-14T22:01:31.728Z,99683.72
2023-02-14T22:03:59.914Z,99701.00
2023-02-14T22:06:27.744Z,99688.66
2023-02-14T22:08:57.066Z,99698.47
2023-02-14T22:11:26.080Z,99704.38
2023-02-14T22:13:53.537Z,99704.94
2023-02-14T22:16:21.722Z,99697.03
2023-02-14T22:18:49.355Z,99704.72
2023-02-14T22:21:22.134Z,99703.63
2023-02-14T22:23:49.777Z,99705.53
2023-02-14T22:26:28.704Z,99704.22
2023-02-14T22:29:01.037Z,99722.19
2023-02-14T22:31:32.872Z,99723.16
2023-02-14T22:33:59.987Z,99719.31
2023-02-14T22:36:27.108Z,99710.47
2023-02-14T22:38:54.147Z,99715.50
2023-02-14T22:41:24.015Z,99714.88
2023-02-14T22:43:52.947Z,99727.59
2023-02-14T22:46:21.355Z,99724.84
2023-02-14T22:48:49.918Z,99715.75
2023-02-14T22:51:29.354Z,99730.13
2023-02-14T22:54:02.539Z,99734.53
2023-02-14T22:56:34.296Z,99727.25
2023-02-14T22:59:04.988Z,99725.56
2023-02-14T23:01:34.010Z,99725.56
2023-02-14T23:04:02.691Z,99725.56
2023-02-14T23:06:31.846Z,99722.22
2023-02-14T23:08:59.363Z,99730.97
2023-02-14T23:11:29.317Z,99738.75
2023-02-14T23:14:16.223Z,99742.09
2023-02-14T23:17:02.276Z,99743.16
2023-02-14T23:19:50.371Z,99734.69
2023-02-14T23:22:29.726Z,99749.75
2023-02-14T23:24:59.102Z,99741.41
2023-02-14T23:27:37.349Z,99742.59
2023-02-14T23:30:09.920Z,99755.03
2023-02-14T23:32:37.124Z,99754.09
2023-02-14T23:35:04.503Z,99745.31
2023-02-14T23:37:31.515Z,99750.72
2023-02-14T23:39:58.553Z,99759.13
2023-02-14T23:42:25.567Z,99745.31
2023-02-14T23:44:52.552Z,99763.53
2023-02-14T23:47:19.709Z,99748.94
2023-02-14T23:49:46.711Z,99765.81
2023-02-14T23:52:14.155Z,99760.66
2023-02-14T23:54:41.244Z,99763.19
2023-02-14T23:57:08.950Z,99764.50
2023-02-14T23:59:35.990Z,99764.63
